Latest Weather Observations for Essendon Airport

IDV60801

Issued at 7:32 pm EDT Wednesday 22 February 2017 (issued every 30 minutes, with the page automatically refreshed every 10 minutes)

About weather observations | Map of weather stations | Latest weather observations for VIC | Other Formats
Station Details ID: 086038 Name: ESSENDON AIRPORT Lat: -37.73 Lon: 144.91 Height: 78.4 m
Data from the previous 72 hours. | See also: Recent months at Essendon Airport
Date/Time
EDT
Temp
°C
App
Temp
°C
Dew
Point
°C
Rel
Hum
%
Delta-T
°C
Wind Press
QNH
hPa
Press
MSL
hPa
Rain since
9am
mm
Dir  Spd
km/h
Gust
km/h
Spd
kts
Gust
kts
22/07:30pm 32.4 24.7 -3.1 10 16.4 N 28 37 15 20 1007.6 1007.3 0.0
22/07:00pm 33.1 25.1 -2.6 10 16.8 N 30 44 16 24 1007.7 1007.5 0.0
22/06:30pm 33.6 25.8 -0.9 11 16.7 N 30 46 16 25 1008.2 1008.0 0.0
22/06:05pm 33.3 25.8 -1.1 11 16.5 N 28 46 15 25 1008.5 1008.3 0.0
22/06:00pm 33.3 26.2 -1.1 11 16.6 N 26 43 14 23 1008.5 1008.3 0.0
22/05:34pm 33.5 25.5 0.2 12 16.4 N 32 50 17 27 1008.7 1008.5 0.0
22/05:30pm 33.5 25.3 0.2 12 16.4 N 33 46 18 25 1008.8 1008.6 0.0
22/05:05pm 31.9 23.7 0.1 13 15.5 N 33 52 18 28 1008.7 1008.5 0.0
22/05:00pm 32.1 24.1 0.2 13 15.6 N 32 46 17 25 1008.9 1008.7 0.0
22/04:45pm 32.0 24.7 0.2 13 15.5 N 28 48 15 26 1009.0 1008.8 0.0
22/04:30pm 32.3 24.3 0.4 13 15.6 N 32 48 17 26 1009.3 1009.1 0.0
22/04:15pm 31.8 23.9 1.0 14 15.2 N 32 50 17 27 1009.2 1009.0 0.0
22/04:00pm 32.4 23.8 0.5 13 15.7 N 35 52 19 28 1009.6 1009.4 0.0
22/03:30pm 31.8 24.4 2.0 15 14.9 NNE 30 46 16 25 1009.6 1009.4 0.0
22/03:00pm 31.8 24.4 3.8 17 14.5 NNE 32 50 17 27 1010.5 1010.3 0.0
22/02:34pm 31.0 23.3 2.3 16 14.4 N 32 54 17 29 1011.5 1011.3 0.0
22/02:30pm 31.3 23.4 2.5 16 14.5 N 33 44 18 24 1011.6 1011.4 0.0
22/02:02pm 31.1 23.6 3.2 17 14.2 N 32 50 17 27 1012.0 1011.8 0.0
22/02:00pm 30.9 23.0 2.2 16 14.4 N 33 50 18 27 1012.0 1011.8 0.0
22/01:30pm 29.6 21.4 2.8 18 13.4 N 35 56 19 30 1012.4 1012.2 0.0
22/01:01pm 29.1 21.3 3.1 19 13.1 N 33 52 18 28 1012.8 1012.6 0.0
22/01:00pm 29.6 21.9 3.6 19 13.2 N 33 50 18 27 1012.8 1012.6 0.0
22/12:30pm 28.2 20.1 3.1 20 12.5 N 35 48 19 26 1013.4 1013.2 0.0
22/12:18pm 28.1 20.5 3.0 20 12.5 N 32 56 17 30 1013.7 1013.5 0.0
22/12:00pm 27.5 20.6 4.5 23 11.7 N 30 46 16 25 1014.2 1014.0 0.0
22/11:54am 27.2 20.6 4.3 23 11.6 N 28 46 15 25 1014.2 1014.0 0.0
22/11:30am 26.7 20.3 5.1 25 11.1 N 28 43 15 23 1014.6 1014.4 0.0
22/11:03am 25.8 19.3 6.4 29 10.1 N 30 48 16 26 1014.9 1014.7 0.0
22/11:00am 26.0 20.0 7.1 30 10.0 N 28 37 15 20 1015.0 1014.8 0.0
22/10:30am 25.2 19.4 4.3 26 10.5 N 24 33 13 18 1015.4 1015.1 0.0
22/10:00am 23.8 17.0 3.2 26 10.0 N 28 39 15 21 1015.3 1015.0 0.0
22/09:30am 22.8 17.7 4.3 30 9.1 N 20 30 11 16 1015.4 1015.1 0.0
22/09:00am 20.6 17.3 6.2 39 7.2 NNE 13 17 7 9 1015.6 1015.3 0.0
22/08:30am 17.6 15.7 7.4 51 5.1 N 7 13 4 7 1015.6 1015.3 0.0
22/08:00am 13.4 11.9 8.5 72 2.5 NE 6 7 3 4 1015.6 1015.3 0.0
22/07:30am 10.9 8.8 6.5 74 2.1 NE 7 9 4 5 1015.5 1015.2 0.0
22/07:00am 10.5 7.5 5.9 73 2.1 ENE 11 11 6 6 1015.5 1015.2 0.0
22/06:30am 10.5 7.9 6.3 75 2.0 NE 9 11 5 6 1015.3 1015.0 0.0
22/06:00am 10.5 7.8 7.4 81 1.5 ENE 11 13 6 7 1015.0 1014.8 0.0
22/05:30am 11.3 9.2 8.2 81 1.5 ENE 9 9 5 5 1015.2 1014.9 0.0
22/05:00am 12.3 10.8 9.0 80 1.7 NNE 7 9 4 5 1015.3 1015.0 0.0
22/04:30am 12.7 10.9 9.5 81 1.6 NNE 9 11 5 6 1015.6 1015.3 0.0
22/04:00am 11.8 10.0 9.4 85 1.2 NE 9 13 5 7 1015.9 1015.6 0.0
22/03:30am 12.0 9.9 9.7 86 1.2 NNE 11 13 6 7 1016.1 1015.8 0.0
22/03:00am 12.5 11.2 9.9 84 1.3 NE 7 9 4 5 1016.4 1016.1 0.0
22/02:30am 12.9 11.8 9.9 82 1.5 NE 6 9 3 5 1016.7 1016.4 0.0
22/02:00am 13.5 12.3 10.3 81 1.7 N 7 9 4 5 1016.9 1016.6 0.0
22/01:30am 13.8 12.1 10.0 78 2.0 NNW 9 11 5 6 1017.3 1017.0 0.0
22/01:00am 14.7 12.4 10.3 75 2.3 NW 13 15 7 8 1017.7 1017.4 0.0
22/12:30am 15.0 12.7 10.4 74 2.4 NW 13 15 7 8 1018.0 1017.7 0.0
22/12:00am 15.3 14.6 10.1 71 2.7 NW 4 11 2 6 1018.2 1017.9 0.0
 
Date/Time
EDT
Temp
°C
App
Temp
°C
Dew
Point
°C
Rel
Hum
%
Delta-T
°C
Wind Press
QNH
hPa
Press
MSL
hPa
Rain since
9am
mm
Dir  Spd
km/h
Gust
km/h
Spd
kts
Gust
kts
21/11:30pm 16.4 16.6 10.7 69 3.0 CALM 0 0 0 0 1018.2 1017.9 0.0
21/11:00pm 16.5 15.5 10.4 67 3.2 SSE 6 7 3 4 1018.4 1018.1 0.0
21/10:30pm 17.4 16.3 10.8 65 3.6 SSE 7 9 4 5 1018.4 1018.1 0.0
21/10:00pm 17.7 15.4 10.6 63 3.8 SE 13 17 7 9 1018.3 1018.0 0.0
21/09:30pm 18.6 16.0 10.7 60 4.3 ESE 15 20 8 11 1018.1 1017.8 0.0
21/09:00pm 19.2 16.5 10.5 57 4.7 ESE 15 20 8 11 1017.8 1017.5 0.0
21/08:30pm 20.0 16.8 10.1 53 5.3 ESE 17 20 9 11 1017.5 1017.2 0.0
21/08:00pm 21.3 17.8 10.2 49 6.0 SE 19 24 10 13 1017.2 1016.9 0.0
21/07:30pm 21.6 18.5 10.4 49 6.1 S 17 20 9 11 1017.0 1016.7 0.0
21/07:00pm 22.6 18.7 9.4 43 7.1 S 20 28 11 15 1017.2 1016.9 0.0
21/06:30pm 23.5 19.3 7.6 36 8.4 SSE 19 26 10 14 1017.2 1016.9 0.0
21/06:00pm 23.8 19.3 6.1 32 9.1 SSE 19 26 10 14 1017.2 1016.9 0.0
21/05:30pm 23.4 18.8 5.8 32 8.9 SSE 19 28 10 15 1017.3 1017.0 0.0
21/05:00pm 23.0 17.9 5.9 33 8.7 SSE 22 28 12 15 1017.8 1017.5 0.0
21/04:30pm 23.0 17.7 6.7 35 8.4 S 24 32 13 17 1018.2 1017.9 0.0
21/04:00pm 23.2 19.2 6.5 34 8.6 SE 17 26 9 14 1018.4 1018.1 0.0
21/03:30pm 23.7 20.5 3.1 26 10.0 ESE 9 19 5 10 1018.8 1018.6 0.0
21/03:00pm 23.0 19.8 3.0 27 9.6 NNE 9 13 5 7 1019.3 1019.1 0.0
21/02:30pm 22.5 19.7 3.1 28 9.3 E 7 11 4 6 1019.7 1019.5 0.0
21/02:00pm 21.1 18.5 4.2 33 8.2 SSW 7 11 4 6 1020.0 1019.8 0.0
21/01:30pm 20.7 18.0 3.9 33 8.1 NE 7 15 4 8 1020.4 1020.2 0.0
21/01:00pm 20.6 18.6 6.2 39 7.2 SE 6 9 3 5 1021.0 1020.8 0.0
21/12:30pm 19.9 17.7 6.3 41 6.8 ESE 7 13 4 7 1021.3 1021.1 0.0
21/12:00pm 18.9 16.2 7.4 47 5.8 S 11 13 6 7 1021.6 1021.4 0.0
21/11:30am 18.2 15.9 7.6 50 5.4 SW 9 13 5 7 1021.5 1021.3 0.0
21/11:00am 18.4 16.8 8.1 51 5.3 SW 6 11 3 6 1021.7 1021.5 0.0
21/10:30am 17.1 15.7 8.8 58 4.3 SSE 6 11 3 6 1022.0 1021.8 0.0
21/10:00am 16.1 14.5 8.8 62 3.7 WNW 7 11 4 6 1022.1 1021.9 0.0
21/09:30am 14.7 13.2 8.4 66 3.2 WSW 6 11 3 6 1021.8 1021.6 0.0
21/09:00am 14.2 12.6 8.6 69 2.8 NW 7 11 4 6 1021.5 1021.3 0.2
21/08:30am 12.1 10.4 8.4 78 1.8 N 7 11 4 6 1021.3 1021.1 0.2
21/08:00am 10.1 7.1 7.7 85 1.2 N 13 15 7 8 1021.0 1020.8 0.2
21/07:30am 9.2 6.2 7.5 89 0.8 NNW 13 15 7 8 1020.5 1020.3 0.2
21/07:00am 8.5 5.3 6.8 89 0.8 N 13 15 7 8 1020.1 1019.9 0.2
21/06:30am 8.8 5.7 7.3 90 0.7 N 13 15 7 8 1019.6 1019.4 0.2
21/06:00am 8.8 5.7 7.1 89 0.8 N 13 15 7 8 1019.4 1019.2 0.2
21/05:30am 9.1 6.7 7.1 87 0.9 N 9 11 5 6 1019.2 1019.0 0.2
21/05:00am 9.4 6.5 6.3 81 1.4 NNW 11 15 6 8 1019.2 1019.0 0.2
21/04:30am 10.5 7.9 7.9 84 1.3 NNW 11 17 6 9 1019.1 1018.9 0.2
21/04:00am 10.6 7.5 7.3 80 1.6 NW 13 15 7 8 1018.8 1018.6 0.2
21/03:30am 11.1 8.0 7.4 78 1.8 NW 13 17 7 9 1018.9 1018.7 0.2
21/03:00am 11.4 8.4 7.5 77 1.9 NW 13 17 7 9 1018.8 1018.6 0.2
21/02:30am 11.1 8.3 7.0 76 2.0 NW 11 13 6 7 1018.7 1018.5 0.2
21/02:00am 11.6 8.5 7.3 75 2.1 NW 13 17 7 9 1018.9 1018.7 0.2
21/01:30am 11.4 9.0 6.9 74 2.2 WNW 9 13 5 7 1019.1 1018.9 0.2
21/01:00am 11.9 8.7 7.0 72 2.3 WNW 13 17 7 9 1019.1 1018.9 0.2
21/12:30am 12.1 9.2 6.4 68 2.7 WNW 11 13 6 7 1019.2 1019.0 0.2
21/12:00am 12.6 10.1 6.4 66 2.9 NW 9 11 5 6 1019.0 1018.8 0.2
 
Date/Time
EDT
Temp
°C
App
Temp
°C
Dew
Point
°C
Rel
Hum
%
Delta-T
°C
Wind Press
QNH
hPa
Press
MSL
hPa
Rain since
9am
mm
Dir  Spd
km/h
Gust
km/h
Spd
kts
Gust
kts
20/11:30pm 12.9 9.3 6.7 66 3.0 WNW 15 19 8 10 1019.0 1018.8 0.2
20/11:00pm 13.5 10.4 7.3 66 3.0 W 13 17 7 9 1018.8 1018.6 0.2
20/10:30pm 13.2 11.0 9.3 77 2.0 WSW 11 13 6 7 1018.6 1018.3 0.2
20/10:00pm 14.1 12.4 9.7 75 2.3 SW 9 13 5 7 1018.3 1018.0 0.2
20/09:30pm 14.6 12.1 9.6 72 2.6 SSW 13 17 7 9 1018.0 1017.7 0.2
20/09:00pm 15.5 12.0 10.1 70 2.8 SSW 19 22 10 12 1017.4 1017.1 0.2
20/08:30pm 16.0 12.2 9.9 67 3.2 S 20 30 11 16 1016.8 1016.5 0.2
20/08:00pm 16.6 13.4 9.8 64 3.6 SSW 17 24 9 13 1016.4 1016.1 0.2
20/07:30pm 17.4 13.8 9.8 61 4.0 S 19 24 10 13 1015.9 1015.6 0.2
20/07:00pm 17.2 13.3 9.4 60 4.1 S 20 30 11 16 1015.5 1015.2 0.2
20/06:30pm 17.5 12.7 8.9 57 4.5 S 24 33 13 18 1015.2 1014.9 0.2
20/06:00pm 18.1 13.1 9.7 58 4.4 S 26 37 14 20 1014.8 1014.6 0.2
20/05:30pm 18.4 12.9 9.2 55 4.8 S 28 41 15 22 1014.4 1014.2 0.2
20/05:00pm 18.3 13.7 9.6 57 4.6 S 24 33 13 18 1013.9 1013.7 0.2
20/04:30pm 19.4 14.4 9.6 53 5.2 S 26 35 14 19 1013.6 1013.4 0.2
20/04:00pm 20.1 15.6 9.9 52 5.5 S 24 37 13 20 1013.3 1013.1 0.2
20/03:30pm 19.6 14.1 7.4 45 6.2 S 26 39 14 21 1013.0 1012.8 0.2
20/03:00pm 21.9 14.7 4.9 33 8.4 SW 32 39 17 21 1013.2 1013.0 0.2
20/02:30pm 20.3 13.4 4.8 36 7.6 SW 30 41 16 22 1013.2 1013.0 0.2
20/02:00pm 20.0 13.8 4.5 36 7.5 SW 26 35 14 19 1013.2 1013.0 0.2
20/01:30pm 20.5 13.6 4.5 35 7.8 W 30 48 16 26 1013.2 1013.0 0.0
20/01:03pm 18.6 11.4 6.1 44 6.2 WSW 33 57 18 31 1013.3 1013.1 0.0
20/01:00pm 19.4 12.2 7.8 47 6.0 WSW 35 44 19 24 1013.4 1013.2 0.0
20/12:44pm 19.3 12.5 7.1 45 6.2 WSW 32 52 17 28 1013.3 1013.1 0.0
20/12:30pm 18.6 11.5 6.4 45 6.1 WSW 33 46 18 25 1013.3 1013.1 0.0
20/12:00pm 19.2 12.1 7.9 48 5.8 SW 35 54 19 29 1013.3 1013.1 0.0
20/11:30am 18.8 12.9 7.6 48 5.7 SW 28 37 15 20 1013.4 1013.2 0.0
20/11:11am 17.8 11.3 8.1 53 5.0 WSW 32 50 17 27 1013.6 1013.4 0.0
20/11:00am 16.6 10.0 7.8 56 4.4 WSW 32 46 17 25 1013.6 1013.4 0.0
20/10:30am 17.4 10.6 9.1 58 4.3 WSW 35 44 19 24 1013.6 1013.4 0.0
20/10:00am 15.4 9.0 8.4 63 3.6 WSW 32 44 17 24 1013.4 1013.2 0.0
20/09:30am 14.7 9.1 8.6 67 3.1 WSW 28 43 15 23 1013.2 1013.0 0.0
20/09:00am 13.7 8.1 8.7 72 2.5 WSW 28 37 15 20 1012.9 1012.7 3.2
20/08:30am 13.3 8.8 8.6 73 2.4 W 22 33 12 18 1012.4 1012.2 3.2
20/08:00am 11.9 7.7 8.2 78 1.8 WNW 20 28 11 15 1012.2 1012.0 3.2
20/07:30am 11.6 7.0 8.1 79 1.7 W 22 32 12 17 1011.6 1011.4 3.2
20/07:00am 11.6 7.0 8.1 79 1.7 W 22 32 12 17 1011.3 1011.1 3.2
20/06:30am 11.6 6.6 8.1 79 1.7 W 24 35 13 19 1011.1 1010.9 3.2
20/06:00am 11.4 6.8 8.1 80 1.6 W 22 28 12 15 1010.9 1010.7 3.2
20/05:30am 10.8 6.1 7.7 81 1.5 W 22 28 12 15 1010.7 1010.5 3.2
20/05:00am 11.0 6.7 7.7 80 1.6 W 20 28 11 15 1010.5 1010.3 3.2
20/04:30am 11.1 6.0 7.8 80 1.6 W 24 33 13 18 1010.4 1010.2 3.2
20/04:00am 11.0 6.7 7.7 80 1.6 W 20 28 11 15 1010.3 1010.1 3.2
20/03:30am 11.1 6.4 7.8 80 1.6 W 22 32 12 17 1010.3 1010.1 3.2
20/03:00am 11.1 5.9 7.4 78 1.8 W 24 35 13 19 1010.3 1010.1 3.2
20/02:30am 11.1 6.2 7.0 76 2.0 W 22 30 12 16 1010.4 1010.2 3.2
20/02:00am 11.1 6.3 7.2 77 1.9 WNW 22 32 12 17 1010.5 1010.3 3.2
20/01:30am 11.0 6.1 7.1 77 1.9 WNW 22 30 12 16 1010.6 1010.4 3.2
20/01:00am 10.8 5.1 6.9 77 1.9 W 26 33 14 18 1010.5 1010.3 3.2
20/12:30am 10.7 5.4 6.6 76 1.9 WNW 24 32 13 17 1010.6 1010.4 3.2
20/12:00am 10.6 6.0 6.7 77 1.8 WNW 20 30 11 16 1010.6 1010.4 3.2
 
Date/Time
EDT
Temp
°C
App
Temp
°C
Dew
Point
°C
Rel
Hum
%
Delta-T
°C
Wind Press
QNH
hPa
Press
MSL
hPa
Rain since
9am
mm
Dir  Spd
km/h
Gust
km/h
Spd
kts
Gust
kts
19/11:30pm 10.8 6.2 6.7 76 1.9 WNW 20 24 11 13 1010.8 1010.6 3.2
19/11:00pm 10.5 6.5 6.6 77 1.8 WNW 17 26 9 14 1011.0 1010.8 3.2
19/10:30pm 11.0 7.1 6.9 76 2.0 WNW 17 24 9 13 1010.7 1010.5 3.2
19/10:00pm 11.3 7.1 7.4 77 1.9 WNW 19 24 10 13 1010.6 1010.4 3.2
19/09:30pm 11.6 6.8 7.3 75 2.1 W 22 26 12 14 1010.6 1010.4 3.2
19/09:00pm 11.6 7.2 6.5 71 2.4 W 19 28 10 15 1010.3 1010.1 3.2
19/08:30pm 12.3 7.9 7.2 71 2.5 W 20 26 11 14 1009.9 1009.7 3.2
19/08:00pm 12.5 8.1 7.2 70 2.6 WSW 20 30 11 16 1009.5 1009.3 3.2

Other Formats:

Comma delimited format used in spreadsheet applications
http://www.bom.gov.au/fwo/IDV60801/IDV60801.95866.axf

JavaScript Object Notation format (JSON) in row-major order
http://www.bom.gov.au/fwo/IDV60801/IDV60801.95866.json